EST,Max TemperatureF,Mean TemperatureF,Min TemperatureF,Max Dew PointF,MeanDew PointF,Min DewpointF,Max Humidity, Mean Humidity, Min Humidity, Max Sea Level PressureIn, Mean Sea Level PressureIn, Min Sea Level PressureIn, Max VisibilityMiles, Mean VisibilityMiles, Min VisibilityMiles, Max Wind SpeedMPH, Mean Wind SpeedMPH, Max Gust SpeedMPH,PrecipitationIn, CloudCover, Events, WindDirDegrees
2012-12-1,64,49,34,47,41,32,100,76,52,30.34,30.28,30.24,10,9,3,13,3,21,0.00,1,,186
2012-12-2,69,56,43,51,46,39,89,69,49,30.25,30.21,30.16,10,10,10,22,7,31,0.04,4,,211
2012-12-3,71,62,53,52,49,45,77,62,47,30.25,30.20,30.14,10,10,10,14,6,21,0.00,3,,203
2012-12-4,66,57,47,54,50,43,83,70,56,30.20,30.16,30.11,10,10,6,18,5,28,0.05,7,Rain,215
2012-12-5,57,48,39,48,39,29,93,67,41,30.31,30.25,30.19,10,9,2,17,5,23,0.05,4,Rain,17
2012-12-6,50,41,32,47,39,30,93,82,71,30.19,30.12,30.05,10,9,2,8,2,10,0.10,6,Rain,137
2012-12-7,63,56,49,50,48,44,80,72,64,30.04,29.97,29.91,10,10,10,16,6,22,T,7,Rain,185
2012-12-8,65,60,55,55,53,50,93,78,63,30.00,29.95,29.91,10,8,2,16,5,22,0.23,8,Rain,247
2012-12-9,61,57,53,58,55,53,100,89,78,30.01,29.96,29.81,10,4,0,10,4,15,1.23,7,Fog-Rain-Thunderstorm,188
2012-12-10,61,48,35,55,47,34,100,89,78,29.94,29.76,29.66,10,7,2,20,8,25,1.34,8,Rain-Thunderstorm,266
2012-12-11,37,32,26,34,26,22,92,78,63,30.26,30.10,29.95,10,10,8,12,4,14,0.00,5,,327
2012-12-12,44,33,22,26,23,19,96,71,45,30.39,30.34,30.27,10,10,8,13,4,16,0.00,0,,33
2012-12-13,50,36,22,30,26,21,96,69,42,30.41,30.36,30.32,10,10,7,9,1,13,0.00,0,,13
2012-12-14,56,40,23,35,28,20,92,62,32,30.38,30.30,30.19,10,10,7,7,1,9,0.00,0,,150
2012-12-15,57,46,34,46,37,31,89,68,47,30.17,30.04,29.91,10,10,10,16,5,23,0.02,4,Rain,177
2012-12-16,58,56,53,52,50,48,86,79,72,29.92,29.83,29.74,10,10,6,16,7,22,0.01,6,Rain,190
2012-12-17,56,50,44,54,49,43,100,92,83,29.81,29.71,29.58,10,7,0,29,4,40,0.68,6,Fog-Rain,191
2012-12-18,49,45,40,45,37,30,93,75,56,29.94,29.82,29.67,10,10,9,20,8,25,T,5,Rain,249
2012-12-19,58,45,32,40,36,29,89,70,51,30.07,30.02,29.91,10,10,10,9,1,35,0.00,0,,195
2012-12-20,53,44,34,46,39,27,100,83,65,29.96,29.63,29.47,10,8,2,33,11,40,0.86,7,Rain-Snow,213
2012-12-21,36,32,27,28,22,17,85,71,56,30.17,29.90,29.73,10,8,1,33,17,41,T,8,Snow,276
2012-12-22,38,30,22,20,18,16,84,64,44,30.33,30.23,30.16,10,10,10,14,5,16,0.00,2,,256
2012-12-23,50,36,21,42,31,17,89,64,39,30.15,30.03,29.95,10,9,2,16,4,23,0.08,4,Rain,205
2012-12-24,49,45,40,47,44,41,100,96,92,29.97,29.87,29.80,10,6,0,9,4,13,0.37,8,Fog-Rain,212
2012-12-25,44,39,34,43,36,33,100,93,85,30.11,30.02,29.89,8,4,2,14,8,21,0.15,8,Rain,13
2012-12-26,49,40,30,45,37,27,92,87,82,29.95,29.59,29.42,10,8,2,25,12,32,0.34,8,Rain-Snow-Thunderstorm,247
2012-12-27,31,30,29,27,25,24,85,82,78,30.17,30.10,29.96,10,10,10,17,5,23,0.00,8,,317
2012-12-28,39,34,29,34,28,25,92,78,64,30.14,30.02,29.74,10,10,6,9,3,13,0.10,6,Rain,110
2012-12-29,38,33,27,36,30,20,92,81,69,30.27,29.93,29.71,10,7,2,21,10,28,0.18,8,Rain-Snow,282
2012-12-30,36,30,24,23,19,17,81,69,56,30.51,30.43,30.28,10,10,10,17,4,23,0.00,3,,274
2012-12-31,40,31,21,33,25,20,96,72,48,30.39,30.26,30.12,10,10,8,13,3,16,T,4,Rain,206